Mill Run, PA (15464)

12:44 PM EDT on July 29, 2016 (GMT -0400)
Top of Indian Head | | Change Station

Elev 1857 ft 40.05 °N, 79.37 °W | Updated 1 minute ago

Mostly Cloudy
Mostly Cloudy
86.0 °F
Feels Like 89 °F
N
4.2
Wind Variable Wind from North

Today
High -- | Low -- °F
--% Chance of Precip.
Yesterday
High -- | Low -- °F
Precip. -- in
Pressure 29.99 in
Visibility 10.0 miles
Clouds Mostly Cloudy 1900 ft
Mostly Cloudy 3300 ft
Heat Index 89 °F
Dew Point 67 °F
Humidity 53%
Rainfall 0.00 in
Snow Depth Not available.
6:14 AM 8:33 PM
Waning Crescent, 21% visible
METAR KLBE 291550Z 00000KT 10SM BKN019 BKN033 25/20 A2999
Pressure 29.99 in
Visibility 10.0 miles
Clouds Mostly Cloudy 1900 ft
Mostly Cloudy 3300 ft
Heat Index 89 °F
Dew Point 67 °F
Humidity 53%
Rainfall 0.00 in
Snow Depth Not available.
6:14 AM 8:33 PM
Waning Crescent, 21% visible
METAR KLBE 291550Z 00000KT 10SM BKN019 BKN033 25/20 A2999

10-Day Weather Forecast

Almanac

Astronomy

Jul. 29, 2016 Rise Set
Actual Time
Civil Twilight
Nautical Twilight
Astronomical Twilight
Moon
Length of Visible Light
Length of Day
Tomorrow will be .
, % of the Moon is Illuminated

Today's Extremes

State Highs State Lows

Community

WunderPhotos

Upload Photos

1,928,378 photos uploaded!

WunderBlog® & News

Nearby

Air Quality

  Air Quality AQ Index Pollutant
Not available.

Snow Depth

Station Depth Elevation

Earthquake Activity

City Distance Mag. Time & Date
Minimum magnitude displayed is 2.5.

Coastal Water Temperatures

Place Temperature

Stations

Nearby Weather Stations

Station Location Temp. Windchill Dew Point Humidity Wind Precip. Elev Updated Type
                   

Watches & Warnings

There are currently no watches in effect.